createdAt,value
2018-05-16T00:00:28.409Z,15.54
2018-05-16T00:01:29.000Z,15.46
2018-05-16T00:02:29.558Z,15.49
2018-05-16T00:03:30.096Z,15.44
2018-05-16T00:04:30.645Z,15.47
2018-05-16T00:05:31.195Z,15.49
2018-05-16T00:06:31.745Z,15.44
2018-05-16T00:07:32.299Z,15.40
2018-05-16T00:08:32.847Z,15.42
2018-05-16T00:09:33.401Z,15.31
2018-05-16T00:10:33.948Z,15.47
2018-05-16T00:11:34.498Z,15.40
2018-05-16T00:12:35.050Z,15.44
2018-05-16T00:13:35.600Z,15.47
2018-05-16T00:14:36.140Z,15.44
2018-05-16T00:15:36.689Z,15.42
2018-05-16T00:16:37.240Z,15.47
2018-05-16T00:17:37.784Z,15.47
2018-05-16T00:18:38.334Z,15.44
2018-05-16T00:19:38.883Z,15.46
2018-05-16T00:20:39.425Z,15.40
2018-05-16T00:21:39.977Z,15.40
2018-05-16T00:22:40.529Z,15.40
2018-05-16T00:23:41.084Z,15.34
2018-05-16T00:24:41.626Z,15.29
2018-05-16T00:25:42.166Z,15.31
2018-05-16T00:26:42.723Z,15.29
2018-05-16T00:27:43.269Z,15.25
2018-05-16T00:28:43.821Z,15.19
2018-05-16T00:29:44.373Z,15.13
2018-05-16T00:30:44.925Z,15.18
2018-05-16T00:31:45.473Z,15.19
2018-05-16T00:32:46.021Z,15.22
2018-05-16T00:33:46.568Z,15.26
2018-05-16T00:34:47.120Z,15.26
2018-05-16T00:35:47.666Z,15.24
2018-05-16T00:36:48.224Z,15.21
2018-05-16T00:37:48.778Z,15.22
2018-05-16T00:38:49.328Z,15.14
2018-05-16T00:39:49.877Z,15.22
2018-05-16T00:40:50.427Z,15.24
2018-05-16T00:41:50.971Z,15.21
2018-05-16T00:42:51.514Z,15.21
2018-05-16T00:43:52.063Z,15.14
2018-05-16T00:44:52.607Z,15.22
2018-05-16T00:45:53.155Z,15.04
2018-05-16T00:46:53.702Z,15.10
2018-05-16T00:47:54.252Z,15.04
2018-05-16T00:48:54.800Z,15.07
2018-05-16T00:49:55.351Z,15.21
2018-05-16T00:50:55.897Z,15.19
2018-05-16T00:51:56.449Z,15.18
2018-05-16T00:52:56.999Z,15.13
2018-05-16T00:53:57.553Z,15.19
2018-05-16T00:54:58.107Z,15.17
2018-05-16T00:55:58.651Z,15.21
2018-05-16T00:56:59.201Z,15.13
2018-05-16T00:57:59.755Z,15.19
2018-05-16T00:59:00.305Z,15.06
2018-05-16T01:00:00.855Z,15.04
2018-05-16T01:01:01.410Z,15.10
2018-05-16T01:02:01.963Z,15.04
2018-05-16T01:03:02.518Z,15.07
2018-05-16T01:04:03.069Z,15.03
2018-05-16T01:05:03.621Z,14.99
2018-05-16T01:06:04.167Z,14.99
2018-05-16T01:07:04.715Z,14.96
2018-05-16T01:08:05.269Z,15.04
2018-05-16T01:09:05.817Z,15.00
2018-05-16T01:10:06.370Z,15.00
2018-05-16T01:11:06.923Z,14.99
2018-05-16T01:12:07.468Z,15.01
2018-05-16T01:13:08.021Z,15.03
2018-05-16T01:14:08.569Z,15.01
2018-05-16T01:15:09.124Z,15.03
2018-05-16T01:16:09.682Z,15.07
2018-05-16T01:17:10.220Z,15.07
2018-05-16T01:18:10.770Z,15.01
2018-05-16T01:19:11.316Z,14.94
2018-05-16T01:20:11.860Z,15.03
2018-05-16T01:21:12.409Z,14.99
2018-05-16T01:22:12.960Z,14.99
2018-05-16T01:23:13.513Z,15.03
2018-05-16T01:24:14.058Z,14.94
2018-05-16T01:25:14.603Z,14.94
2018-05-16T01:26:15.157Z,15.04
2018-05-16T01:27:15.709Z,15.00
2018-05-16T01:28:16.263Z,15.03
2018-05-16T01:29:16.810Z,14.96
2018-05-16T01:30:17.355Z,15.04
2018-05-16T01:31:17.911Z,15.00
2018-05-16T01:32:18.464Z,15.01
2018-05-16T01:33:19.016Z,15.04
2018-05-16T01:34:19.564Z,14.99
2018-05-16T01:35:20.109Z,15.00
2018-05-16T01:36:20.663Z,15.00
2018-05-16T01:37:21.216Z,15.00
2018-05-16T01:38:21.766Z,15.06
2018-05-16T01:39:22.346Z,15.04
2018-05-16T01:40:22.862Z,15.00
2018-05-16T01:41:23.416Z,15.09
2018-05-16T01:42:23.965Z,15.10
2018-05-16T01:43:24.511Z,15.01
2018-05-16T01:44:25.063Z,15.06
2018-05-16T01:45:25.612Z,15.03
2018-05-16T01:46:26.167Z,15.06
2018-05-16T01:47:26.720Z,15.11
2018-05-16T01:48:27.270Z,15.18
2018-05-16T01:49:27.822Z,15.22
2018-05-16T01:50:28.371Z,15.18
2018-05-16T01:51:28.927Z,15.26
2018-05-16T01:52:29.476Z,15.22
2018-05-16T01:53:30.027Z,15.19
2018-05-16T01:54:30.576Z,15.21
2018-05-16T01:55:31.127Z,15.18
2018-05-16T01:56:31.680Z,15.18
2018-05-16T01:57:32.231Z,15.14
2018-05-16T01:58:32.775Z,15.22
2018-05-16T01:59:33.325Z,15.17
2018-05-16T02:00:33.874Z,15.17
2018-05-16T02:01:34.424Z,15.14
2018-05-16T02:02:34.972Z,15.25
2018-05-16T02:03:35.525Z,15.21
2018-05-16T02:04:36.073Z,15.17
2018-05-16T02:05:36.613Z,15.24
2018-05-16T02:06:37.164Z,15.29
2018-05-16T02:07:37.709Z,15.37
2018-05-16T02:08:38.262Z,15.44
2018-05-16T02:09:38.808Z,15.43
2018-05-16T02:10:39.357Z,15.43
2018-05-16T02:11:39.911Z,15.50
2018-05-16T02:12:40.467Z,15.43
2018-05-16T02:13:41.016Z,15.49
2018-05-16T02:14:41.561Z,15.46
2018-05-16T02:15:42.119Z,15.58
2018-05-16T02:16:42.666Z,15.47
2018-05-16T02:17:43.223Z,15.49
2018-05-16T02:18:43.777Z,15.50
2018-05-16T02:19:44.327Z,15.57
2018-05-16T02:20:44.878Z,15.64
2018-05-16T02:21:45.432Z,15.67
2018-05-16T02:22:45.986Z,15.61
2018-05-16T02:23:46.542Z,15.68
2018-05-16T02:24:47.088Z,15.65
2018-05-16T02:25:47.636Z,15.55
2018-05-16T02:26:48.185Z,15.55
2018-05-16T02:27:48.734Z,15.43
2018-05-16T02:28:49.284Z,15.42
2018-05-16T02:29:49.836Z,15.43
2018-05-16T02:30:50.381Z,15.36
2018-05-16T02:31:50.928Z,15.37
2018-05-16T02:32:51.485Z,15.40
2018-05-16T02:33:52.035Z,15.31
2018-05-16T02:34:52.580Z,15.28
2018-05-16T02:35:53.129Z,15.17
2018-05-16T02:36:53.683Z,15.17
2018-05-16T02:37:54.233Z,15.19
2018-05-16T02:38:54.793Z,15.21
2018-05-16T02:39:55.335Z,15.21
2018-05-16T02:40:55.887Z,15.22
2018-05-16T02:41:56.433Z,15.17
2018-05-16T02:42:56.981Z,15.25
2018-05-16T02:43:57.520Z,15.25
2018-05-16T02:44:58.068Z,15.21
2018-05-16T02:45:58.618Z,15.22
2018-05-16T02:46:59.157Z,15.07
2018-05-16T02:47:59.787Z,15.10
2018-05-16T02:49:00.256Z,15.07
2018-05-16T02:50:00.808Z,15.09
2018-05-16T02:51:01.581Z,15.09
2018-05-16T02:52:02.126Z,15.06
2018-05-16T02:53:02.678Z,15.06
2018-05-16T02:54:03.227Z,15.06
2018-05-16T02:55:03.783Z,15.09
2018-05-16T02:56:04.336Z,15.03
2018-05-16T02:57:04.886Z,14.99
2018-05-16T02:58:05.449Z,15.00
2018-05-16T02:59:05.996Z,14.95
2018-05-16T03:00:06.548Z,14.94
2018-05-16T03:01:07.091Z,14.88
2018-05-16T03:02:07.647Z,14.81
2018-05-16T03:03:08.198Z,14.75
2018-05-16T03:04:08.743Z,14.58
2018-05-16T03:05:09.288Z,14.62
2018-05-16T03:06:09.842Z,14.54
2018-05-16T03:07:10.397Z,14.55
2018-05-16T03:08:10.951Z,14.44
2018-05-16T03:09:11.501Z,14.55
2018-05-16T03:10:12.054Z,14.58
2018-05-16T03:11:12.611Z,14.63
2018-05-16T03:12:13.155Z,14.63
2018-05-16T03:13:13.711Z,14.69
2018-05-16T03:14:14.252Z,14.68
2018-05-16T03:15:14.796Z,14.65
2018-05-16T03:16:15.346Z,14.68
2018-05-16T03:17:15.898Z,14.66
2018-05-16T03:18:16.442Z,14.70
2018-05-16T03:19:16.986Z,14.68
2018-05-16T03:20:17.540Z,14.66
2018-05-16T03:21:18.087Z,14.66
2018-05-16T03:22:18.637Z,14.65
2018-05-16T03:23:19.190Z,14.62
2018-05-16T03:24:19.741Z,14.60
2018-05-16T03:25:20.287Z,14.58
2018-05-16T03:26:20.838Z,14.50
2018-05-16T03:27:21.388Z,14.52
2018-05-16T03:28:21.934Z,14.40
2018-05-16T03:29:22.484Z,14.47
2018-05-16T03:30:23.045Z,14.47
2018-05-16T03:31:23.591Z,14.51
2018-05-16T03:32:24.136Z,14.48
2018-05-16T03:33:24.694Z,14.51
2018-05-16T03:34:25.244Z,14.60
2018-05-16T03:35:25.797Z,14.57
2018-05-16T03:36:26.351Z,14.62
2018-05-16T03:37:26.904Z,14.60
2018-05-16T03:38:27.463Z,14.63
2018-05-16T03:39:28.013Z,14.60
2018-05-16T03:40:28.565Z,14.63
2018-05-16T03:41:29.105Z,14.69
2018-05-16T03:42:29.661Z,14.60
2018-05-16T03:43:30.213Z,14.63
2018-05-16T03:44:30.761Z,14.63
2018-05-16T03:45:31.316Z,14.63
2018-05-16T03:46:31.866Z,14.69
2018-05-16T03:47:32.415Z,14.68
2018-05-16T03:48:32.972Z,14.60
2018-05-16T03:49:33.516Z,14.65
2018-05-16T03:50:34.074Z,14.66
2018-05-16T03:51:34.614Z,14.68
2018-05-16T03:52:35.161Z,14.70
2018-05-16T03:53:35.712Z,14.66
2018-05-16T03:54:36.267Z,14.78
2018-05-16T03:55:36.821Z,14.78
2018-05-16T03:56:37.379Z,14.78
2018-05-16T03:57:37.939Z,14.88
2018-05-16T03:58:38.487Z,14.92
2018-05-16T03:59:39.047Z,14.89
2018-05-16T04:00:39.610Z,14.85
2018-05-16T04:01:40.160Z,14.91
2018-05-16T04:02:40.705Z,14.95
2018-05-16T04:03:41.261Z,14.86
2018-05-16T04:04:41.807Z,14.91
2018-05-16T04:05:42.358Z,14.84
2018-05-16T04:06:42.912Z,14.99
2018-05-16T04:07:43.474Z,14.99
2018-05-16T04:08:44.027Z,14.99
2018-05-16T04:09:44.585Z,14.95
2018-05-16T04:10:45.139Z,14.99
2018-05-16T04:11:45.700Z,14.99
2018-05-16T04:12:46.251Z,14.99
2018-05-16T04:13:46.807Z,14.88
2018-05-16T04:14:47.358Z,15.04
2018-05-16T04:15:47.924Z,15.17
2018-05-16T04:16:48.477Z,15.04
2018-05-16T04:17:49.032Z,15.06
2018-05-16T04:18:49.587Z,14.99
2018-05-16T04:19:50.140Z,15.06
2018-05-16T04:20:50.689Z,15.03
2018-05-16T04:21:51.250Z,15.10
2018-05-16T04:22:51.805Z,15.04
2018-05-16T04:23:52.363Z,15.00
2018-05-16T04:24:52.915Z,15.04
2018-05-16T04:25:53.473Z,15.04
2018-05-16T04:26:54.029Z,15.10
2018-05-16T04:27:54.579Z,15.09
2018-05-16T04:28:55.254Z,15.06
2018-05-16T04:29:55.689Z,15.07
2018-05-16T04:30:56.244Z,15.06
2018-05-16T04:31:56.815Z,15.07
2018-05-16T04:32:57.356Z,15.09
2018-05-16T04:33:57.911Z,15.09
2018-05-16T04:34:58.473Z,15.03
2018-05-16T04:35:59.032Z,15.07
2018-05-16T04:36:59.589Z,15.06
2018-05-16T04:38:00.154Z,15.06
2018-05-16T04:39:00.715Z,15.06
2018-05-16T04:40:01.278Z,15.10
2018-05-16T04:41:01.827Z,15.07
2018-05-16T04:42:02.387Z,15.09
2018-05-16T04:43:02.946Z,15.18
2018-05-16T04:44:03.508Z,15.21
2018-05-16T04:45:04.061Z,15.26
2018-05-16T04:46:04.610Z,15.28
2018-05-16T04:47:05.170Z,15.19
2018-05-16T04:48:05.726Z,15.29
2018-05-16T04:49:06.288Z,15.26
2018-05-16T04:50:06.848Z,15.19
2018-05-16T04:51:07.404Z,15.26
2018-05-16T04:52:07.954Z,15.29
2018-05-16T04:53:08.510Z,15.24
2018-05-16T04:54:09.074Z,15.21
2018-05-16T04:55:09.634Z,15.21
2018-05-16T04:56:10.201Z,15.18
2018-05-16T04:57:10.756Z,15.29
2018-05-16T04:58:11.534Z,15.26
2018-05-16T04:59:12.089Z,15.31
2018-05-16T05:00:12.646Z,15.47
2018-05-16T05:01:13.208Z,15.44
2018-05-16T05:02:13.771Z,15.54
2018-05-16T05:03:14.316Z,15.69
2018-05-16T05:04:14.874Z,15.69
2018-05-16T05:05:15.423Z,15.73
2018-05-16T05:06:15.974Z,15.82
2018-05-16T05:07:16.532Z,15.98
2018-05-16T05:08:17.094Z,16.05
2018-05-16T05:09:17.645Z,16.08
2018-05-16T05:10:18.202Z,16.16
2018-05-16T05:11:18.760Z,16.29
2018-05-16T05:12:19.320Z,16.54
2018-05-16T05:13:19.878Z,16.75
2018-05-16T05:14:20.440Z,16.79
2018-05-16T05:15:20.997Z,16.90
2018-05-16T05:16:21.548Z,17.00
2018-05-16T05:17:22.111Z,17.18
2018-05-16T05:18:22.850Z,17.52
2018-05-16T05:19:23.229Z,17.83
2018-05-16T05:20:23.789Z,18.20
2018-05-16T05:21:24.356Z,18.60
2018-05-16T05:22:24.913Z,18.93
2018-05-16T05:23:25.474Z,19.16
2018-05-16T05:24:26.036Z,19.47
2018-05-16T05:25:26.601Z,19.84
2018-05-16T05:26:27.168Z,20.06
2018-05-16T05:27:27.721Z,20.36
2018-05-16T05:28:28.279Z,20.48
2018-05-16T05:29:28.835Z,20.25
2018-05-16T05:30:29.405Z,20.11
2018-05-16T05:31:29.971Z,20.03
2018-05-16T05:32:30.532Z,19.95
2018-05-16T05:33:31.097Z,19.84
2018-05-16T05:34:31.657Z,19.91
2018-05-16T05:35:32.226Z,19.98
2018-05-16T05:36:32.788Z,19.96
2018-05-16T05:37:33.356Z,20.09
2018-05-16T05:38:33.928Z,20.19
2018-05-16T05:39:34.490Z,20.29
2018-05-16T05:40:35.051Z,20.26
2018-05-16T05:41:35.615Z,20.31
2018-05-16T05:42:36.183Z,20.26
2018-05-16T05:43:36.745Z,20.32
2018-05-16T05:44:37.303Z,20.42
2018-05-16T05:45:37.868Z,20.57
2018-05-16T05:46:38.438Z,20.96
2018-05-16T05:47:39.006Z,21.15
2018-05-16T05:48:39.565Z,21.64
2018-05-16T05:49:40.134Z,22.03
2018-05-16T05:50:40.711Z,22.21
2018-05-16T05:51:41.285Z,22.33
2018-05-16T05:52:41.853Z,22.63
2018-05-16T05:53:42.420Z,22.72
2018-05-16T05:54:42.986Z,22.84
2018-05-16T05:55:43.561Z,23.25
2018-05-16T05:56:44.125Z,23.53
2018-05-16T05:57:44.695Z,23.61
2018-05-16T05:58:45.264Z,23.91
2018-05-16T05:59:45.828Z,24.08
2018-05-16T06:00:46.396Z,23.88
2018-05-16T06:01:46.966Z,23.66
2018-05-16T06:02:47.540Z,23.80
2018-05-16T06:03:48.105Z,23.86
2018-05-16T06:04:48.676Z,24.02
2018-05-16T06:05:49.243Z,24.03
2018-05-16T06:06:49.806Z,23.83
2018-05-16T06:07:50.379Z,23.90
2018-05-16T06:08:50.948Z,23.76
2018-05-16T06:09:51.517Z,24.02
2018-05-16T06:10:52.091Z,24.26
2018-05-16T06:11:52.664Z,24.43
2018-05-16T06:12:53.237Z,24.69
2018-05-16T06:13:53.803Z,24.96
2018-05-16T06:14:54.367Z,25.04
2018-05-16T06:15:54.941Z,24.98
2018-05-16T06:16:55.512Z,24.81
2018-05-16T06:17:56.081Z,24.57
2018-05-16T06:18:56.661Z,24.48
2018-05-16T06:19:57.334Z,24.64
2018-05-16T06:20:57.808Z,24.92
2018-05-16T06:21:58.387Z,25.29
2018-05-16T06:22:58.943Z,25.57
2018-05-16T06:23:59.524Z,25.65
2018-05-16T06:25:00.101Z,25.53
2018-05-16T06:26:00.683Z,25.38
2018-05-16T06:27:01.308Z,25.56
2018-05-16T06:28:02.033Z,25.68
2018-05-16T06:29:02.616Z,25.75
2018-05-16T06:30:03.200Z,25.63
2018-05-16T06:31:03.777Z,25.69
2018-05-16T06:32:04.356Z,25.83
2018-05-16T06:33:04.953Z,25.86
2018-05-16T06:34:05.515Z,25.32
2018-05-16T06:35:06.089Z,25.09
2018-05-16T06:36:06.661Z,25.57
2018-05-16T06:37:07.238Z,25.98
2018-05-16T06:38:07.808Z,26.18
2018-05-16T06:39:08.464Z,26.40
2018-05-16T06:40:08.957Z,26.54
2018-05-16T06:41:09.517Z,26.62
2018-05-16T06:42:10.097Z,26.84
2018-05-16T06:43:10.667Z,27.00
2018-05-16T06:44:11.234Z,27.35
2018-05-16T06:45:11.813Z,27.33
2018-05-16T06:46:12.393Z,27.51
2018-05-16T06:47:12.962Z,27.66
2018-05-16T06:48:13.524Z,27.76
2018-05-16T06:49:14.096Z,27.98
2018-05-16T06:50:14.670Z,28.29
2018-05-16T06:51:15.245Z,27.92
2018-05-16T06:52:15.819Z,27.85
2018-05-16T06:53:16.384Z,27.48
2018-05-16T06:54:16.958Z,27.36
2018-05-16T06:55:17.541Z,27.78
2018-05-16T06:56:18.110Z,27.99
2018-05-16T06:57:18.678Z,27.80
2018-05-16T06:58:19.254Z,27.85
2018-05-16T06:59:19.836Z,28.08
2018-05-16T07:00:20.407Z,28.08
2018-05-16T07:01:20.986Z,27.85
2018-05-16T07:02:21.559Z,27.88
2018-05-16T07:03:22.160Z,27.96
2018-05-16T07:04:22.735Z,28.42
2018-05-16T07:05:23.313Z,28.72
2018-05-16T07:06:23.906Z,28.69
2018-05-16T07:07:24.464Z,28.62
2018-05-16T07:08:25.052Z,28.79
2018-05-16T07:10:09.792Z,28.81
2018-05-16T07:11:10.355Z,29.10
2018-05-16T07:12:11.044Z,29.08
2018-05-16T07:13:11.557Z,29.22
2018-05-16T07:14:12.129Z,29.16
2018-05-16T07:15:12.735Z,29.05
2018-05-16T07:16:13.277Z,28.94
2018-05-16T07:17:13.853Z,29.20
2018-05-16T07:18:14.444Z,29.20
2018-05-16T07:19:15.018Z,29.23
2018-05-16T07:20:15.587Z,29.27
2018-05-16T07:21:16.164Z,29.37
2018-05-16T07:22:16.739Z,29.38
2018-05-16T07:23:17.316Z,29.47
2018-05-16T07:24:17.885Z,29.60
2018-05-16T07:25:18.461Z,29.60
2018-05-16T07:26:19.064Z,29.74
2018-05-16T07:27:19.608Z,29.69
2018-05-16T07:28:20.179Z,29.71
2018-05-16T07:29:20.753Z,29.48
2018-05-16T07:30:21.325Z,29.66
2018-05-16T07:31:21.898Z,29.56
2018-05-16T07:32:22.476Z,29.52
2018-05-16T07:33:23.048Z,29.48
2018-05-16T07:34:23.624Z,29.37
2018-05-16T07:35:24.200Z,29.25
2018-05-16T07:36:24.794Z,29.25
2018-05-16T07:37:25.345Z,28.84
2018-05-16T07:38:25.934Z,28.94
2018-05-16T07:39:26.511Z,29.00
2018-05-16T07:40:27.089Z,28.78
2018-05-16T07:41:27.669Z,28.69
2018-05-16T07:42:28.281Z,28.66
2018-05-16T07:43:28.876Z,28.91
2018-05-16T07:44:29.455Z,29.25
2018-05-16T07:45:30.105Z,29.39
2018-05-16T07:46:30.672Z,29.47
2018-05-16T07:47:31.237Z,29.35
2018-05-16T07:48:31.855Z,29.50
2018-05-16T07:49:32.435Z,29.74
2018-05-16T07:50:33.015Z,29.87
2018-05-16T07:51:33.594Z,29.79
2018-05-16T07:52:34.198Z,29.75
2018-05-16T07:53:34.780Z,29.52
2018-05-16T07:54:35.347Z,29.56
2018-05-16T07:55:35.919Z,29.59
2018-05-16T07:56:36.512Z,29.67
2018-05-16T07:57:37.071Z,29.82
2018-05-16T07:58:37.657Z,29.85
2018-05-16T07:59:38.220Z,29.59
2018-05-16T08:00:38.808Z,29.76
2018-05-16T08:01:39.376Z,29.75
2018-05-16T08:02:39.950Z,29.71
2018-05-16T08:03:40.561Z,29.63
2018-05-16T08:04:41.152Z,29.45
2018-05-16T08:05:41.724Z,29.34
2018-05-16T08:06:42.290Z,29.37
2018-05-16T08:07:42.857Z,29.25
2018-05-16T08:08:43.455Z,29.27
2018-05-16T08:09:44.031Z,29.32
2018-05-16T08:10:44.616Z,29.56
2018-05-16T08:11:45.234Z,29.53
2018-05-16T08:12:45.808Z,29.34
2018-05-16T08:13:46.384Z,29.57
2018-05-16T08:14:46.974Z,29.63
2018-05-16T08:15:47.596Z,29.44
2018-05-16T08:16:48.218Z,29.44
2018-05-16T08:17:48.830Z,29.71
2018-05-16T08:18:49.446Z,29.69
2018-05-16T08:19:50.105Z,29.79
2018-05-16T08:20:50.699Z,30.01
2018-05-16T08:21:51.429Z,30.06
2018-05-16T08:22:51.920Z,30.19
2018-05-16T08:23:52.507Z,30.16
2018-05-16T08:24:53.126Z,30.01
2018-05-16T08:25:53.716Z,29.71
2018-05-16T08:26:54.305Z,29.53
2018-05-16T08:27:54.878Z,29.27
2018-05-16T08:28:55.457Z,29.13
2018-05-16T08:29:56.026Z,29.10
2018-05-16T08:30:56.602Z,29.16
2018-05-16T08:31:57.191Z,29.17
2018-05-16T08:32:57.752Z,29.25
2018-05-16T08:33:58.331Z,29.48
2018-05-16T08:34:58.904Z,29.48
2018-05-16T08:35:59.475Z,29.56
2018-05-16T08:37:00.050Z,29.53
2018-05-16T08:38:00.626Z,29.69
2018-05-16T08:39:01.203Z,29.89
2018-05-16T08:40:01.787Z,30.01
2018-05-16T08:41:02.394Z,30.00
2018-05-16T08:42:02.961Z,30.37
2018-05-16T08:43:03.592Z,30.56
2018-05-16T08:44:04.124Z,30.46
2018-05-16T08:45:04.688Z,30.35
2018-05-16T08:46:05.266Z,29.97
2018-05-16T08:47:05.836Z,29.52
2018-05-16T08:48:06.412Z,29.23
2018-05-16T08:49:06.986Z,29.25
2018-05-16T08:50:07.559Z,28.87
2018-05-16T08:51:08.134Z,28.63
2018-05-16T08:52:08.698Z,28.65
2018-05-16T08:53:09.273Z,28.65
2018-05-16T08:54:09.857Z,28.55
2018-05-16T08:55:10.435Z,28.94
2018-05-16T08:56:11.014Z,28.82
2018-05-16T08:57:11.605Z,28.50
2018-05-16T08:58:12.166Z,28.32
2018-05-16T08:59:12.858Z,28.25
2018-05-16T09:00:13.438Z,28.14
2018-05-16T09:01:14.148Z,27.99
2018-05-16T09:02:14.606Z,28.11
2018-05-16T09:03:15.219Z,28.52
2018-05-16T09:04:15.826Z,28.65
2018-05-16T09:05:16.429Z,28.62
2018-05-16T09:06:17.012Z,28.60
2018-05-16T09:07:17.603Z,28.59
2018-05-16T09:08:18.224Z,28.29
2018-05-16T09:09:18.831Z,28.22
2018-05-16T09:10:19.431Z,28.65
2018-05-16T09:11:20.023Z,29.01
2018-05-16T09:12:20.601Z,29.25
2018-05-16T09:13:21.201Z,29.26
2018-05-16T09:14:21.797Z,29.32
2018-05-16T09:15:22.399Z,29.13
2018-05-16T09:16:22.941Z,28.73
2018-05-16T09:17:23.607Z,28.50
2018-05-16T09:18:24.097Z,28.51
2018-05-16T09:19:24.694Z,28.30
2018-05-16T09:20:25.247Z,28.18
2018-05-16T09:21:25.845Z,27.95
2018-05-16T09:22:26.451Z,27.78
2018-05-16T09:23:27.047Z,27.66
2018-05-16T09:24:27.569Z,27.43
2018-05-16T09:25:28.137Z,27.17
2018-05-16T09:26:28.699Z,26.91
2018-05-16T09:27:29.280Z,26.68
2018-05-16T09:28:29.878Z,26.65
2018-05-16T09:29:30.451Z,26.68
2018-05-16T09:30:31.065Z,26.68
2018-05-16T09:31:31.638Z,26.56
2018-05-16T09:32:32.268Z,26.34
2018-05-16T09:33:32.850Z,26.12
2018-05-16T09:34:33.417Z,26.16
2018-05-16T09:35:34.006Z,25.87
2018-05-16T09:36:34.575Z,25.71
2018-05-16T09:37:35.244Z,25.58
2018-05-16T09:38:35.805Z,25.47
2018-05-16T09:39:36.406Z,25.48
2018-05-16T09:40:36.966Z,25.24
2018-05-16T09:41:37.553Z,25.01
2018-05-16T09:42:38.128Z,24.69
2018-05-16T09:43:38.681Z,24.69
2018-05-16T09:44:39.272Z,24.41
2018-05-16T09:45:39.847Z,24.33
2018-05-16T09:46:40.392Z,24.43
2018-05-16T09:47:40.966Z,24.45
2018-05-16T09:48:41.534Z,24.20
2018-05-16T09:49:42.094Z,24.05
2018-05-16T09:50:42.708Z,23.99
2018-05-16T09:51:43.288Z,23.98
2018-05-16T09:52:43.956Z,23.98
2018-05-16T09:53:44.528Z,23.88
2018-05-16T09:54:45.106Z,23.80
2018-05-16T09:55:45.692Z,23.71
2018-05-16T09:56:46.265Z,23.61
2018-05-16T09:57:46.853Z,23.41
2018-05-16T09:58:47.450Z,23.50
2018-05-16T09:59:48.029Z,23.62
2018-05-16T10:00:48.666Z,23.56
2018-05-16T10:01:49.221Z,23.49
2018-05-16T10:02:49.852Z,23.76
2018-05-16T10:03:50.422Z,23.84
2018-05-16T10:04:50.980Z,23.94
2018-05-16T10:05:51.563Z,24.01
2018-05-16T10:06:52.174Z,24.11
2018-05-16T10:07:52.779Z,24.18
2018-05-16T10:08:53.644Z,24.24
2018-05-16T10:09:54.265Z,24.36
2018-05-16T10:10:54.871Z,24.42
2018-05-16T10:11:55.450Z,24.42
2018-05-16T10:12:56.048Z,24.56
2018-05-16T10:13:56.630Z,24.61
2018-05-16T10:14:57.187Z,24.66
2018-05-16T10:15:58.073Z,24.70
2018-05-16T10:16:58.622Z,24.79
2018-05-16T10:17:59.133Z,24.94
2018-05-16T10:18:59.745Z,24.92
2018-05-16T10:20:00.337Z,24.83
2018-05-16T10:21:00.933Z,24.53
2018-05-16T10:22:01.864Z,24.53
2018-05-16T10:23:02.431Z,24.41
2018-05-16T10:24:02.986Z,24.53
2018-05-16T10:25:03.575Z,24.73
2018-05-16T10:26:04.169Z,25.20
2018-05-16T10:27:04.808Z,25.65
2018-05-16T10:28:05.431Z,25.99
2018-05-16T10:29:06.038Z,26.26
2018-05-16T10:30:06.636Z,26.21
2018-05-16T10:31:07.260Z,26.22
2018-05-16T10:32:07.828Z,26.24
2018-05-16T10:33:08.406Z,26.69
2018-05-16T10:34:08.990Z,26.93
2018-05-16T10:35:09.668Z,26.95
2018-05-16T10:36:10.254Z,26.93
2018-05-16T10:37:10.861Z,27.02
2018-05-16T10:38:11.491Z,27.11
2018-05-16T10:39:12.197Z,27.17
2018-05-16T10:40:12.787Z,27.21
2018-05-16T10:41:13.425Z,27.15
2018-05-16T10:42:14.177Z,26.85
2018-05-16T10:43:14.840Z,27.00
2018-05-16T10:44:15.304Z,27.15
2018-05-16T10:45:15.893Z,27.20
2018-05-16T10:46:16.489Z,27.58
2018-05-16T10:47:17.075Z,27.20
2018-05-16T10:48:17.685Z,27.54
2018-05-16T10:49:18.292Z,27.63
2018-05-16T10:50:18.903Z,27.54
2018-05-16T10:51:19.507Z,27.23
2018-05-16T10:52:20.179Z,27.10
2018-05-16T10:53:20.724Z,26.98
2018-05-16T10:54:21.330Z,26.95
2018-05-16T10:55:21.972Z,26.98
2018-05-16T10:56:22.650Z,27.05
2018-05-16T10:57:23.348Z,26.99
2018-05-16T10:58:23.922Z,26.66
2018-05-16T10:59:24.580Z,26.62
2018-05-16T11:00:25.165Z,26.37
2018-05-16T11:01:25.759Z,26.39
2018-05-16T11:02:26.363Z,26.09
2018-05-16T11:03:27.060Z,26.08
2018-05-16T11:04:27.619Z,25.95
2018-05-16T11:05:28.200Z,25.94
2018-05-16T11:06:28.817Z,25.78
2018-05-16T11:07:29.450Z,25.56
2018-05-16T11:08:30.046Z,25.36
2018-05-16T11:09:30.641Z,25.26
2018-05-16T11:10:31.225Z,25.17
2018-05-16T11:11:31.809Z,25.01
2018-05-16T11:12:32.398Z,24.99
2018-05-16T11:13:32.958Z,25.02
2018-05-16T11:14:33.538Z,24.98
2018-05-16T11:15:34.086Z,24.80
2018-05-16T11:16:34.655Z,24.77
2018-05-16T11:17:35.297Z,24.73
2018-05-16T11:18:35.890Z,24.77
2018-05-16T11:19:36.463Z,24.64
2018-05-16T11:20:37.035Z,24.61
2018-05-16T11:21:37.597Z,24.64
2018-05-16T11:22:38.164Z,24.56
2018-05-16T11:23:38.725Z,24.53
2018-05-16T11:24:39.296Z,24.56
2018-05-16T11:25:39.860Z,24.31
2018-05-16T11:26:40.429Z,24.03
2018-05-16T11:27:40.990Z,23.79
2018-05-16T11:28:41.565Z,23.91
2018-05-16T11:29:42.141Z,23.74
2018-05-16T11:30:42.798Z,23.64
2018-05-16T11:31:43.280Z,23.68
2018-05-16T11:32:43.837Z,23.65
2018-05-16T11:33:44.403Z,23.54
2018-05-16T11:34:44.965Z,23.44
2018-05-16T11:35:45.536Z,23.50
2018-05-16T11:36:46.104Z,23.62
2018-05-16T11:37:46.680Z,23.65
2018-05-16T11:38:47.238Z,23.54
2018-05-16T11:39:47.809Z,23.53
2018-05-16T11:40:48.618Z,23.43
2018-05-16T11:41:49.191Z,23.51
2018-05-16T11:42:49.753Z,23.53
2018-05-16T11:43:50.326Z,23.77
2018-05-16T11:44:50.906Z,23.83
2018-05-16T11:45:51.523Z,23.94
2018-05-16T11:46:52.078Z,23.98
2018-05-16T11:47:52.644Z,24.09
2018-05-16T11:48:53.254Z,24.24
2018-05-16T11:49:53.765Z,24.41
2018-05-16T11:50:54.368Z,24.58
2018-05-16T11:51:54.901Z,24.63
2018-05-16T11:52:55.472Z,24.80
2018-05-16T11:53:56.043Z,25.10
2018-05-16T11:54:56.613Z,25.62
2018-05-16T11:55:57.181Z,25.98
2018-05-16T11:56:57.749Z,26.28
2018-05-16T11:57:58.319Z,26.71
2018-05-16T11:58:58.897Z,26.98
2018-05-16T11:59:59.480Z,27.02
2018-05-16T12:01:00.090Z,26.99
2018-05-16T12:02:00.655Z,26.95
2018-05-16T12:03:01.253Z,27.02
2018-05-16T12:04:01.838Z,27.13
2018-05-16T12:05:02.495Z,26.87
2018-05-16T12:06:03.083Z,26.40
2018-05-16T12:07:03.667Z,26.47
2018-05-16T12:08:04.260Z,26.44
2018-05-16T12:09:04.858Z,26.32
2018-05-16T12:10:05.516Z,26.55
2018-05-16T12:11:06.116Z,26.74
2018-05-16T12:12:06.726Z,26.74
2018-05-16T12:13:07.407Z,26.96
2018-05-16T12:14:08.015Z,26.99
2018-05-16T12:15:08.613Z,26.95
2018-05-16T12:16:09.218Z,26.87
2018-05-16T12:17:09.860Z,26.93
2018-05-16T12:18:10.388Z,26.96
2018-05-16T12:19:10.998Z,27.02
2018-05-16T12:20:11.565Z,26.91
2018-05-16T12:21:12.109Z,26.96
2018-05-16T12:22:12.719Z,26.83
2018-05-16T12:23:13.301Z,26.73
2018-05-16T12:24:13.856Z,26.40
2018-05-16T12:25:14.494Z,26.50
2018-05-16T12:26:15.078Z,26.73
2018-05-16T12:27:15.703Z,26.80
2018-05-16T12:28:16.249Z,26.95
2018-05-16T12:29:16.854Z,26.71
2018-05-16T12:30:17.399Z,26.59
2018-05-16T12:31:17.973Z,26.68
2018-05-16T12:32:18.542Z,26.81
2018-05-16T12:33:19.122Z,26.48
2018-05-16T12:34:19.699Z,26.65
2018-05-16T12:35:20.292Z,26.34
2018-05-16T12:36:20.855Z,26.32
2018-05-16T12:37:21.420Z,26.55
2018-05-16T12:38:22.009Z,26.59
2018-05-16T12:39:22.583Z,26.37
2018-05-16T12:40:23.147Z,26.66
2018-05-16T12:41:23.722Z,26.56
2018-05-16T12:42:24.397Z,26.37
2018-05-16T12:43:24.917Z,26.21
2018-05-16T12:44:25.470Z,26.03
2018-05-16T12:45:26.074Z,26.00
2018-05-16T12:46:26.659Z,25.94
2018-05-16T12:47:27.221Z,25.81
2018-05-16T12:48:27.799Z,25.75
2018-05-16T12:49:28.420Z,25.28
2018-05-16T12:50:28.947Z,25.09
2018-05-16T12:51:29.593Z,25.07
2018-05-16T12:52:30.102Z,24.94
2018-05-16T12:53:30.660Z,24.88
2018-05-16T12:54:31.231Z,24.88
2018-05-16T12:55:31.802Z,24.66
2018-05-16T12:56:32.381Z,24.73
2018-05-16T12:57:32.963Z,24.70
2018-05-16T12:58:33.547Z,24.54
2018-05-16T12:59:34.170Z,24.60
2018-05-16T13:00:34.731Z,24.58